WWA1996 KSAT-KCHA
Flight info
| Callsign | WWA1996 |
|---|---|
| Flight time | 2h 24m |
| Altitude | 37000 |
| Route | SNIDR1 BLUMS IAH INCIN Q38 LAREY HRISN WODDY |
| Aircraft | P180/L-SBDFGM3RWXY/LB1 |
Departure
| Time | 2026-04-24 11:45 |
|---|---|
| Airport | San Antonio International Airport (KSAT) |
Arrival
| Time | 2026-04-24 14:09 |
|---|---|
| Airport | Chattanooga Metropolitan Airport (Lovell Field) (KCHA) |
| Time | Latitude | Longitude | Altitude | Speed | Heading |
|---|---|---|---|---|---|
| 2026-04-24 11:33 | 29.52222 | -98.46733 | 788 ft | 0 kts | 311° |
| 2026-04-24 11:34 | 29.52222 | -98.46734 | 788 ft | 1 kts | 308° |
| 2026-04-24 11:35 | 29.52203 | -98.46749 | 789 ft | 5 kts | 192° |
| 2026-04-24 11:35 | 29.52185 | -98.46714 | 788 ft | 0 kts | 90° |
| 2026-04-24 11:35 | 29.52190 | -98.46708 | 788 ft | 1 kts | 37° |
| 2026-04-24 11:35 | 29.52214 | -98.46709 | 787 ft | 5 kts | 353° |
| 2026-04-24 11:36 | 29.52229 | -98.46732 | 788 ft | 6 kts | 207° |
| 2026-04-24 11:36 | 29.52207 | -98.46768 | 789 ft | 6 kts | 272° |
| 2026-04-24 11:36 | 29.52236 | -98.46816 | 789 ft | 9 kts | 313° |
| 2026-04-24 11:36 | 29.52289 | -98.46882 | 788 ft | 13 kts | 310° |
| 2026-04-24 11:37 | 29.52360 | -98.46974 | 785 ft | 17 kts | 312° |
| 2026-04-24 11:37 | 29.52456 | -98.47049 | 786 ft | 18 kts | 26° |
| 2026-04-24 11:37 | 29.52561 | -98.46945 | 783 ft | 21 kts | 39° |
| 2026-04-24 11:37 | 29.52676 | -98.46832 | 784 ft | 22 kts | 36° |
| 2026-04-24 11:38 | 29.52815 | -98.46862 | 782 ft | 23 kts | 310° |
| 2026-04-24 11:38 | 29.52919 | -98.46998 | 786 ft | 22 kts | 312° |
| 2026-04-24 11:38 | 29.53020 | -98.47128 | 788 ft | 22 kts | 311° |
| 2026-04-24 11:38 | 29.53120 | -98.47257 | 793 ft | 21 kts | 311° |
| 2026-04-24 11:39 | 29.53219 | -98.47386 | 793 ft | 23 kts | 311° |
| 2026-04-24 11:39 | 29.53326 | -98.47523 | 795 ft | 23 kts | 311° |
| 2026-04-24 11:39 | 29.53437 | -98.47666 | 794 ft | 25 kts | 312° |
| 2026-04-24 11:39 | 29.53552 | -98.47814 | 798 ft | 25 kts | 311° |
| 2026-04-24 11:40 | 29.53669 | -98.47964 | 801 ft | 25 kts | 311° |
| 2026-04-24 11:40 | 29.53782 | -98.48109 | 807 ft | 24 kts | 313° |
| 2026-04-24 11:40 | 29.53896 | -98.48255 | 810 ft | 24 kts | 312° |
| 2026-04-24 11:40 | 29.54009 | -98.48402 | 811 ft | 25 kts | 311° |
| 2026-04-24 11:41 | 29.54128 | -98.48530 | 812 ft | 17 kts | 17° |
| 2026-04-24 11:41 | 29.54142 | -98.48516 | 812 ft | 0 kts | 42° |
| 2026-04-24 11:43 | 29.54157 | -98.48500 | 812 ft | 7 kts | 40° |
| 2026-04-24 11:44 | 29.54189 | -98.48439 | 812 ft | 14 kts | 128° |
| 2026-04-24 11:44 | 29.54029 | -98.48233 | 812 ft | 67 kts | 131° |
| 2026-04-24 11:44 | 29.53566 | -98.47634 | 800 ft | 128 kts | 133° |
| 2026-04-24 11:44 | 29.52985 | -98.46865 | 1329 ft | 128 kts | 135° |
| 2026-04-24 11:45 | 29.52359 | -98.46097 | 1798 ft | 133 kts | 136° |
| 2026-04-24 11:45 | 29.51730 | -98.45337 | 2346 ft | 129 kts | 144° |
| 2026-04-24 11:45 | 29.51114 | -98.44547 | 2797 ft | 146 kts | 127° |
| 2026-04-24 11:45 | 29.50905 | -98.43343 | 3406 ft | 165 kts | 82° |
| 2026-04-24 11:46 | 29.51507 | -98.42174 | 4073 ft | 175 kts | 52° |
| 2026-04-24 11:46 | 29.52254 | -98.41070 | 4800 ft | 176 kts | 54° |
| 2026-04-24 11:46 | 29.52962 | -98.39917 | 5461 ft | 177 kts | 54° |
| 2026-04-24 11:46 | 29.53669 | -98.38763 | 6155 ft | 177 kts | 49° |
| 2026-04-24 11:47 | 29.54441 | -98.37663 | 6787 ft | 178 kts | 47° |
| 2026-04-24 11:47 | 29.55202 | -98.36534 | 7453 ft | 179 kts | 49° |
| 2026-04-24 11:47 | 29.55945 | -98.35379 | 8144 ft | 180 kts | 50° |
| 2026-04-24 11:47 | 29.56696 | -98.34219 | 8795 ft | 182 kts | 50° |
| 2026-04-24 11:48 | 29.57459 | -98.33054 | 9452 ft | 183 kts | 50° |
| 2026-04-24 11:48 | 29.58224 | -98.31874 | 10052 ft | 185 kts | 50° |
| 2026-04-24 11:48 | 29.58991 | -98.30695 | 10598 ft | 188 kts | 49° |
| 2026-04-24 11:48 | 29.59784 | -98.29478 | 11063 ft | 197 kts | 49° |
| 2026-04-24 11:49 | 29.60646 | -98.28157 | 11378 ft | 211 kts | 49° |
| 2026-04-24 11:49 | 29.61521 | -98.26795 | 11934 ft | 213 kts | 49° |
| 2026-04-24 11:49 | 29.62414 | -98.25424 | 12438 ft | 216 kts | 49° |
| 2026-04-24 11:49 | 29.63093 | -98.23864 | 12914 ft | 225 kts | 75° |
| 2026-04-24 11:50 | 29.63244 | -98.22061 | 13423 ft | 228 kts | 86° |
| 2026-04-24 11:50 | 29.63333 | -98.20228 | 13872 ft | 231 kts | 83° |
| 2026-04-24 11:50 | 29.63520 | -98.18385 | 14302 ft | 233 kts | 80° |
| 2026-04-24 11:50 | 29.63724 | -98.16528 | 14712 ft | 235 kts | 81° |
| 2026-04-24 11:51 | 29.63893 | -98.14652 | 15122 ft | 237 kts | 82° |
| 2026-04-24 11:51 | 29.64056 | -98.12780 | 15526 ft | 239 kts | 82° |
| 2026-04-24 11:51 | 29.64237 | -98.10845 | 15937 ft | 241 kts | 82° |
| 2026-04-24 11:51 | 29.64417 | -98.08947 | 16329 ft | 243 kts | 82° |
| 2026-04-24 11:52 | 29.64595 | -98.07010 | 16703 ft | 245 kts | 82° |
| 2026-04-24 11:52 | 29.64774 | -98.05057 | 17093 ft | 246 kts | 82° |
| 2026-04-24 11:52 | 29.64956 | -98.03092 | 17467 ft | 248 kts | 82° |
| 2026-04-24 11:52 | 29.65088 | -98.01107 | 17820 ft | 250 kts | 89° |
| 2026-04-24 11:53 | 29.65090 | -97.99103 | 18182 ft | 251 kts | 88° |
| 2026-04-24 11:53 | 29.65118 | -97.97741 | 18380 ft | 253 kts | 87° |
| 2026-04-24 11:53 | 29.65171 | -97.95712 | 18675 ft | 255 kts | 88° |
| 2026-04-24 11:53 | 29.65204 | -97.93671 | 18932 ft | 257 kts | 89° |
| 2026-04-24 11:54 | 29.65226 | -97.91606 | 19222 ft | 259 kts | 89° |
| 2026-04-24 11:54 | 29.65255 | -97.89531 | 19515 ft | 261 kts | 88° |
| 2026-04-24 11:54 | 29.65287 | -97.87462 | 19797 ft | 263 kts | 89° |
| 2026-04-24 11:54 | 29.65315 | -97.85353 | 20087 ft | 265 kts | 89° |
| 2026-04-24 11:55 | 29.65343 | -97.83222 | 20373 ft | 267 kts | 89° |
| 2026-04-24 11:55 | 29.65373 | -97.81071 | 20662 ft | 269 kts | 89° |
| 2026-04-24 11:55 | 29.65396 | -97.78909 | 20955 ft | 271 kts | 89° |
| 2026-04-24 11:55 | 29.65418 | -97.76733 | 21244 ft | 273 kts | 89° |
| 2026-04-24 11:56 | 29.65443 | -97.74539 | 21540 ft | 275 kts | 89° |
| 2026-04-24 11:56 | 29.65469 | -97.72331 | 21834 ft | 277 kts | 89° |
| 2026-04-24 11:56 | 29.65492 | -97.70102 | 22134 ft | 280 kts | 89° |
| 2026-04-24 11:56 | 29.65515 | -97.67861 | 22437 ft | 282 kts | 89° |
| 2026-04-24 11:57 | 29.65540 | -97.65595 | 22740 ft | 284 kts | 89° |
| 2026-04-24 11:57 | 29.65563 | -97.63341 | 23042 ft | 286 kts | 89° |
| 2026-04-24 11:57 | 29.65586 | -97.61044 | 23350 ft | 288 kts | 89° |
| 2026-04-24 11:57 | 29.65608 | -97.58728 | 23602 ft | 291 kts | 89° |
| 2026-04-24 11:58 | 29.65632 | -97.56390 | 23867 ft | 293 kts | 89° |
| 2026-04-24 11:58 | 29.65655 | -97.54039 | 24127 ft | 296 kts | 89° |
| 2026-04-24 11:58 | 29.65677 | -97.51667 | 24385 ft | 298 kts | 88° |
| 2026-04-24 11:58 | 29.65699 | -97.49271 | 24644 ft | 301 kts | 88° |
| 2026-04-24 11:59 | 29.65721 | -97.46859 | 24926 ft | 303 kts | 88° |
| 2026-04-24 11:59 | 29.65743 | -97.44425 | 25210 ft | 305 kts | 88° |
| 2026-04-24 11:59 | 29.65764 | -97.41976 | 25492 ft | 308 kts | 88° |
| 2026-04-24 11:59 | 29.65785 | -97.39503 | 25778 ft | 310 kts | 88° |
| 2026-04-24 12:00 | 29.65806 | -97.37016 | 26062 ft | 313 kts | 88° |
| 2026-04-24 12:00 | 29.65826 | -97.34501 | 26352 ft | 315 kts | 88° |
| 2026-04-24 12:00 | 29.65846 | -97.31975 | 26643 ft | 318 kts | 88° |
| 2026-04-24 12:00 | 29.65866 | -97.29428 | 26936 ft | 320 kts | 88° |
| 2026-04-24 12:01 | 29.65886 | -97.26858 | 27234 ft | 322 kts | 88° |
| 2026-04-24 12:01 | 29.65904 | -97.24265 | 27535 ft | 325 kts | 87° |
| 2026-04-24 12:01 | 29.65923 | -97.21658 | 27829 ft | 328 kts | 87° |
| 2026-04-24 12:01 | 29.65940 | -97.19063 | 28129 ft | 330 kts | 87° |
| 2026-04-24 12:02 | 29.65957 | -97.16412 | 28429 ft | 333 kts | 87° |
| 2026-04-24 12:02 | 29.65973 | -97.13745 | 28738 ft | 335 kts | 87° |
| 2026-04-24 12:02 | 29.65989 | -97.11052 | 29052 ft | 337 kts | 87° |
| 2026-04-24 12:02 | 29.66005 | -97.08342 | 29333 ft | 340 kts | 87° |
| 2026-04-24 12:03 | 29.66020 | -97.05614 | 29614 ft | 342 kts | 87° |
| 2026-04-24 12:03 | 29.66035 | -97.02863 | 29876 ft | 345 kts | 87° |
| 2026-04-24 12:03 | 29.66049 | -97.00103 | 30103 ft | 347 kts | 87° |
| 2026-04-24 12:03 | 29.66064 | -96.97321 | 30335 ft | 348 kts | 86° |
| 2026-04-24 12:04 | 29.66081 | -96.94515 | 30509 ft | 352 kts | 86° |
| 2026-04-24 12:04 | 29.66096 | -96.91738 | 30752 ft | 352 kts | 86° |
| 2026-04-24 12:04 | 29.66108 | -96.88919 | 30992 ft | 352 kts | 86° |
| 2026-04-24 12:04 | 29.66122 | -96.86095 | 31238 ft | 353 kts | 86° |
| 2026-04-24 12:05 | 29.66136 | -96.83275 | 31482 ft | 353 kts | 86° |
| 2026-04-24 12:05 | 29.66148 | -96.80452 | 31721 ft | 353 kts | 86° |
| 2026-04-24 12:05 | 29.66159 | -96.77744 | 31956 ft | 353 kts | 85° |
| 2026-04-24 12:05 | 29.66169 | -96.75191 | 32176 ft | 354 kts | 85° |
| 2026-04-24 12:06 | 29.66177 | -96.72360 | 32427 ft | 354 kts | 85° |
| 2026-04-24 12:06 | 29.66188 | -96.69532 | 32684 ft | 354 kts | 85° |
| 2026-04-24 12:06 | 29.66199 | -96.66695 | 32931 ft | 354 kts | 85° |
| 2026-04-24 12:06 | 29.66206 | -96.63865 | 33168 ft | 354 kts | 85° |
| 2026-04-24 12:07 | 29.66213 | -96.61032 | 33403 ft | 355 kts | 85° |
| 2026-04-24 12:07 | 29.66220 | -96.58198 | 33639 ft | 355 kts | 85° |
| 2026-04-24 12:07 | 29.66228 | -96.55362 | 33862 ft | 355 kts | 84° |
| 2026-04-24 12:07 | 29.66234 | -96.52520 | 34049 ft | 355 kts | 84° |
| 2026-04-24 12:08 | 29.66239 | -96.49680 | 34250 ft | 356 kts | 84° |
| 2026-04-24 12:08 | 29.66239 | -96.46835 | 34434 ft | 356 kts | 85° |
| 2026-04-24 12:08 | 29.66232 | -96.44022 | 34616 ft | 356 kts | 85° |
| 2026-04-24 12:08 | 29.66227 | -96.41160 | 34805 ft | 357 kts | 85° |
| 2026-04-24 12:09 | 29.66226 | -96.38307 | 34980 ft | 357 kts | 85° |
| 2026-04-24 12:09 | 29.66222 | -96.35445 | 35147 ft | 357 kts | 85° |
| 2026-04-24 12:09 | 29.66216 | -96.32583 | 35313 ft | 358 kts | 85° |
| 2026-04-24 12:09 | 29.66210 | -96.29721 | 35478 ft | 358 kts | 85° |
| 2026-04-24 12:10 | 29.66204 | -96.26851 | 35636 ft | 358 kts | 85° |
| 2026-04-24 12:10 | 29.66197 | -96.23982 | 35793 ft | 359 kts | 85° |
| 2026-04-24 12:10 | 29.66190 | -96.21150 | 35934 ft | 359 kts | 85° |
| 2026-04-24 12:11 | 29.66173 | -96.15397 | 36215 ft | 360 kts | 85° |
| 2026-04-24 12:11 | 29.66164 | -96.12516 | 36354 ft | 360 kts | 85° |
| 2026-04-24 12:11 | 29.66154 | -96.09633 | 36486 ft | 361 kts | 85° |
| 2026-04-24 12:11 | 29.66143 | -96.06750 | 36645 ft | 361 kts | 85° |
| 2026-04-24 12:12 | 29.66132 | -96.03867 | 36764 ft | 363 kts | 85° |
| 2026-04-24 12:12 | 29.66109 | -95.97987 | 36833 ft | 372 kts | 85° |
| 2026-04-24 12:13 | 29.66080 | -95.91962 | 36864 ft | 381 kts | 85° |
| 2026-04-24 12:13 | 29.66050 | -95.85837 | 36868 ft | 389 kts | 85° |
| 2026-04-24 12:14 | 29.66234 | -95.79586 | 36865 ft | 390 kts | 73° |
| 2026-04-24 12:14 | 29.66856 | -95.76564 | 36876 ft | 385 kts | 62° |
| 2026-04-24 12:14 | 29.67836 | -95.73732 | 36881 ft | 378 kts | 52° |
| 2026-04-24 12:15 | 29.70694 | -95.68846 | 36877 ft | 362 kts | 34° |
| 2026-04-24 12:15 | 29.73986 | -95.64397 | 36872 ft | 368 kts | 36° |
| 2026-04-24 12:16 | 29.77288 | -95.59845 | 36861 ft | 372 kts | 35° |
| 2026-04-24 12:16 | 29.80649 | -95.55267 | 36850 ft | 376 kts | 36° |
| 2026-04-24 12:17 | 29.84008 | -95.50647 | 36857 ft | 380 kts | 36° |
| 2026-04-24 12:17 | 29.87421 | -95.45973 | 36871 ft | 382 kts | 36° |
| 2026-04-24 12:18 | 29.90852 | -95.41253 | 36879 ft | 385 kts | 36° |
| 2026-04-24 12:18 | 29.94301 | -95.36511 | 36881 ft | 387 kts | 36° |
| 2026-04-24 12:19 | 29.97478 | -95.31386 | 36866 ft | 398 kts | 45° |
| 2026-04-24 12:19 | 30.00440 | -95.26043 | 36869 ft | 393 kts | 44° |
| 2026-04-24 12:20 | 30.03402 | -95.20730 | 36869 ft | 393 kts | 45° |
| 2026-04-24 12:20 | 30.06318 | -95.15444 | 36865 ft | 391 kts | 44° |
| 2026-04-24 12:21 | 30.09249 | -95.10167 | 36867 ft | 390 kts | 45° |
| 2026-04-24 12:21 | 30.12160 | -95.04886 | 36865 ft | 389 kts | 44° |
| 2026-04-24 12:22 | 30.15073 | -94.99620 | 36868 ft | 389 kts | 45° |
| 2026-04-24 12:22 | 30.17975 | -94.94349 | 36867 ft | 388 kts | 45° |
| 2026-04-24 12:23 | 30.20870 | -94.89094 | 36869 ft | 388 kts | 45° |
| 2026-04-24 12:23 | 30.23743 | -94.83866 | 36866 ft | 387 kts | 45° |
| 2026-04-24 12:24 | 30.26633 | -94.78605 | 36866 ft | 387 kts | 45° |
| 2026-04-24 12:24 | 30.29518 | -94.73343 | 36874 ft | 387 kts | 45° |
| 2026-04-24 12:25 | 30.32397 | -94.68087 | 36871 ft | 386 kts | 45° |
| 2026-04-24 12:25 | 30.35272 | -94.62830 | 36874 ft | 386 kts | 45° |
| 2026-04-24 12:26 | 30.38125 | -94.57606 | 36873 ft | 386 kts | 45° |
| 2026-04-24 12:26 | 30.40997 | -94.52344 | 36870 ft | 386 kts | 45° |
| 2026-04-24 12:27 | 30.43860 | -94.47086 | 36873 ft | 385 kts | 45° |
| 2026-04-24 12:27 | 30.46721 | -94.41828 | 36877 ft | 385 kts | 45° |
| 2026-04-24 12:28 | 30.49577 | -94.36572 | 36878 ft | 385 kts | 45° |
| 2026-04-24 12:28 | 30.52411 | -94.31350 | 36880 ft | 385 kts | 45° |
| 2026-04-24 12:29 | 30.55261 | -94.26088 | 36876 ft | 385 kts | 45° |
| 2026-04-24 12:29 | 30.58111 | -94.20823 | 36881 ft | 385 kts | 45° |
| 2026-04-24 12:30 | 30.60960 | -94.15550 | 36882 ft | 385 kts | 45° |
| 2026-04-24 12:30 | 30.63804 | -94.10284 | 36888 ft | 385 kts | 45° |
| 2026-04-24 12:31 | 30.66643 | -94.05013 | 36890 ft | 384 kts | 45° |
| 2026-04-24 12:31 | 30.69463 | -93.99780 | 36893 ft | 385 kts | 45° |
| 2026-04-24 12:32 | 30.72299 | -93.94501 | 36896 ft | 384 kts | 46° |
| 2026-04-24 12:32 | 30.75133 | -93.89226 | 36895 ft | 385 kts | 46° |
| 2026-04-24 12:33 | 30.77966 | -93.83937 | 36893 ft | 385 kts | 46° |
| 2026-04-24 12:33 | 30.80795 | -93.78656 | 36891 ft | 384 kts | 46° |
| 2026-04-24 12:34 | 30.83616 | -93.73378 | 36893 ft | 384 kts | 46° |
| 2026-04-24 12:34 | 30.86434 | -93.68101 | 36894 ft | 384 kts | 46° |
| 2026-04-24 12:35 | 30.89234 | -93.62850 | 36901 ft | 383 kts | 46° |
| 2026-04-24 12:35 | 30.92044 | -93.57574 | 36905 ft | 383 kts | 46° |
| 2026-04-24 12:36 | 30.94846 | -93.52305 | 36909 ft | 382 kts | 46° |
| 2026-04-24 12:36 | 30.97651 | -93.47024 | 36908 ft | 382 kts | 46° |
| 2026-04-24 12:37 | 31.00448 | -93.41750 | 36910 ft | 382 kts | 46° |
| 2026-04-24 12:37 | 31.03243 | -93.36474 | 36899 ft | 382 kts | 46° |
| 2026-04-24 12:38 | 31.06011 | -93.31240 | 36898 ft | 381 kts | 46° |
| 2026-04-24 12:38 | 31.08796 | -93.25969 | 36899 ft | 381 kts | 47° |
| 2026-04-24 12:39 | 31.14355 | -93.15423 | 36901 ft | 381 kts | 47° |
| 2026-04-24 12:40 | 31.17125 | -93.10158 | 36903 ft | 380 kts | 47° |
| 2026-04-24 12:40 | 31.19872 | -93.04930 | 36906 ft | 380 kts | 47° |
| 2026-04-24 12:41 | 31.22632 | -92.99668 | 36907 ft | 379 kts | 47° |
| 2026-04-24 12:41 | 31.25388 | -92.94407 | 36915 ft | 378 kts | 47° |
| 2026-04-24 12:42 | 31.27672 | -92.90048 | 36916 ft | 378 kts | 47° |
| 2026-04-24 12:42 | 31.30414 | -92.84798 | 36918 ft | 377 kts | 48° |
| 2026-04-24 12:43 | 31.33148 | -92.79562 | 36915 ft | 377 kts | 48° |
| 2026-04-24 12:43 | 31.35851 | -92.74304 | 36915 ft | 379 kts | 50° |
| 2026-04-24 12:44 | 31.38414 | -92.68908 | 36915 ft | 378 kts | 51° |
| 2026-04-24 12:44 | 31.40992 | -92.63547 | 36916 ft | 377 kts | 51° |
| 2026-04-24 12:45 | 31.43550 | -92.58180 | 36917 ft | 377 kts | 51° |
| 2026-04-24 12:45 | 31.46093 | -92.52853 | 36916 ft | 376 kts | 51° |
| 2026-04-24 12:46 | 31.48641 | -92.47505 | 36918 ft | 376 kts | 51° |
| 2026-04-24 12:46 | 31.51185 | -92.42155 | 36911 ft | 375 kts | 51° |
| 2026-04-24 12:47 | 31.53724 | -92.36812 | 36910 ft | 375 kts | 52° |
| 2026-04-24 12:47 | 31.56260 | -92.31462 | 36909 ft | 374 kts | 52° |
| 2026-04-24 12:48 | 31.58788 | -92.26131 | 36913 ft | 374 kts | 52° |
| 2026-04-24 12:48 | 31.61306 | -92.20803 | 36913 ft | 373 kts | 52° |
| 2026-04-24 12:49 | 31.63807 | -92.15510 | 36919 ft | 372 kts | 52° |
| 2026-04-24 12:49 | 31.66313 | -92.10196 | 36917 ft | 372 kts | 52° |
| 2026-04-24 12:50 | 31.68815 | -92.04885 | 36924 ft | 371 kts | 52° |
| 2026-04-24 12:50 | 31.71314 | -91.99570 | 36926 ft | 371 kts | 53° |
| 2026-04-24 12:51 | 31.73804 | -91.94268 | 36928 ft | 370 kts | 53° |
| 2026-04-24 12:51 | 31.76290 | -91.88969 | 36924 ft | 370 kts | 53° |
| 2026-04-24 12:52 | 31.78766 | -91.83683 | 36930 ft | 369 kts | 53° |
| 2026-04-24 12:52 | 31.81235 | -91.78403 | 36926 ft | 368 kts | 53° |
| 2026-04-24 12:53 | 31.83682 | -91.73162 | 36928 ft | 367 kts | 53° |
| 2026-04-24 12:53 | 31.86139 | -91.67893 | 36932 ft | 367 kts | 54° |
| 2026-04-24 12:54 | 31.88591 | -91.62629 | 36927 ft | 366 kts | 54° |
| 2026-04-24 12:54 | 31.91033 | -91.57377 | 36934 ft | 365 kts | 54° |
| 2026-04-24 12:55 | 31.93470 | -91.52131 | 36930 ft | 364 kts | 54° |
| 2026-04-24 12:55 | 31.95894 | -91.46902 | 36932 ft | 364 kts | 54° |
| 2026-04-24 12:56 | 31.98316 | -91.41673 | 36928 ft | 363 kts | 54° |
| 2026-04-24 12:56 | 32.00761 | -91.36485 | 36929 ft | 360 kts | 51° |
| 2026-04-24 12:57 | 32.03438 | -91.31563 | 36933 ft | 359 kts | 51° |
| 2026-04-24 12:57 | 32.06093 | -91.26582 | 36932 ft | 358 kts | 51° |
| 2026-04-24 12:58 | 32.08758 | -91.21636 | 36937 ft | 357 kts | 51° |
| 2026-04-24 12:58 | 32.11412 | -91.16673 | 36940 ft | 357 kts | 51° |
| 2026-04-24 12:59 | 32.14061 | -91.11729 | 36941 ft | 356 kts | 51° |
| 2026-04-24 12:59 | 32.16701 | -91.06789 | 36945 ft | 356 kts | 51° |
| 2026-04-24 13:00 | 32.19335 | -91.01853 | 36941 ft | 355 kts | 51° |
| 2026-04-24 13:00 | 32.21951 | -90.96947 | 36943 ft | 355 kts | 52° |
| 2026-04-24 13:01 | 32.24578 | -90.92014 | 36944 ft | 354 kts | 52° |
| 2026-04-24 13:01 | 32.27200 | -90.87083 | 36943 ft | 354 kts | 52° |
| 2026-04-24 13:02 | 32.29819 | -90.82152 | 36944 ft | 354 kts | 52° |
| 2026-04-24 13:02 | 32.32429 | -90.77227 | 36945 ft | 353 kts | 52° |
| 2026-04-24 13:03 | 32.35023 | -90.72333 | 36943 ft | 353 kts | 52° |
| 2026-04-24 13:03 | 32.37626 | -90.67410 | 36956 ft | 352 kts | 53° |
| 2026-04-24 13:04 | 32.40220 | -90.62502 | 36960 ft | 351 kts | 53° |
| 2026-04-24 13:04 | 32.42809 | -90.57596 | 36955 ft | 351 kts | 53° |
| 2026-04-24 13:05 | 32.45388 | -90.52696 | 36957 ft | 350 kts | 53° |
| 2026-04-24 13:05 | 32.47967 | -90.47799 | 36960 ft | 350 kts | 53° |
| 2026-04-24 13:06 | 32.50537 | -90.42908 | 36956 ft | 349 kts | 53° |
| 2026-04-24 13:06 | 32.53098 | -90.38027 | 36960 ft | 349 kts | 53° |
| 2026-04-24 13:07 | 32.55655 | -90.33150 | 36961 ft | 348 kts | 53° |
| 2026-04-24 13:07 | 32.58206 | -90.28276 | 36963 ft | 347 kts | 53° |
| 2026-04-24 13:08 | 32.60737 | -90.23434 | 36961 ft | 347 kts | 53° |
| 2026-04-24 13:08 | 32.63277 | -90.18571 | 36962 ft | 346 kts | 53° |
| 2026-04-24 13:09 | 32.67075 | -90.11284 | 36962 ft | 346 kts | 53° |
| 2026-04-24 13:09 | 32.69602 | -90.06428 | 36963 ft | 345 kts | 53° |
| 2026-04-24 13:10 | 32.72126 | -90.01570 | 36962 ft | 345 kts | 53° |
| 2026-04-24 13:10 | 32.74649 | -89.96710 | 36960 ft | 345 kts | 54° |
| 2026-04-24 13:11 | 32.77163 | -89.91860 | 36960 ft | 345 kts | 54° |
| 2026-04-24 13:11 | 32.79674 | -89.87010 | 36959 ft | 344 kts | 53° |
| 2026-04-24 13:12 | 32.82183 | -89.82156 | 36961 ft | 345 kts | 54° |
| 2026-04-24 13:12 | 32.84689 | -89.77304 | 36960 ft | 344 kts | 54° |
| 2026-04-24 13:13 | 32.87190 | -89.72453 | 36956 ft | 344 kts | 54° |
| 2026-04-24 13:13 | 32.89688 | -89.67603 | 36966 ft | 344 kts | 54° |
| 2026-04-24 13:14 | 32.92184 | -89.62749 | 36965 ft | 343 kts | 54° |
| 2026-04-24 13:14 | 32.94661 | -89.57928 | 36967 ft | 343 kts | 54° |
| 2026-04-24 13:15 | 32.97148 | -89.53079 | 36961 ft | 343 kts | 54° |
| 2026-04-24 13:15 | 32.99635 | -89.48225 | 36954 ft | 343 kts | 54° |
| 2026-04-24 13:16 | 33.02115 | -89.43375 | 36967 ft | 342 kts | 54° |
| 2026-04-24 13:16 | 33.04593 | -89.38526 | 36974 ft | 342 kts | 54° |
| 2026-04-24 13:17 | 33.07064 | -89.33683 | 36977 ft | 342 kts | 54° |
| 2026-04-24 13:17 | 33.09532 | -89.28839 | 36983 ft | 341 kts | 54° |
| 2026-04-24 13:18 | 33.11992 | -89.24005 | 36996 ft | 341 kts | 54° |
| 2026-04-24 13:18 | 33.14431 | -89.19208 | 37005 ft | 340 kts | 54° |
| 2026-04-24 13:19 | 33.16883 | -89.14375 | 37003 ft | 340 kts | 54° |
| 2026-04-24 13:19 | 33.19326 | -89.09556 | 37008 ft | 339 kts | 54° |
| 2026-04-24 13:20 | 33.21767 | -89.04735 | 37010 ft | 339 kts | 54° |
| 2026-04-24 13:20 | 33.24207 | -88.99909 | 37014 ft | 339 kts | 54° |
| 2026-04-24 13:21 | 33.26640 | -88.95090 | 36998 ft | 339 kts | 54° |
| 2026-04-24 13:21 | 33.29056 | -88.90299 | 36994 ft | 338 kts | 54° |
| 2026-04-24 13:22 | 33.31483 | -88.85478 | 36989 ft | 338 kts | 54° |
| 2026-04-24 13:22 | 33.33905 | -88.80664 | 36994 ft | 338 kts | 54° |
| 2026-04-24 13:23 | 33.36325 | -88.75844 | 37002 ft | 338 kts | 54° |
| 2026-04-24 13:23 | 33.38743 | -88.71024 | 37005 ft | 338 kts | 54° |
| 2026-04-24 13:24 | 33.41159 | -88.66201 | 37008 ft | 338 kts | 54° |
| 2026-04-24 13:24 | 33.43576 | -88.61370 | 37009 ft | 338 kts | 54° |
| 2026-04-24 13:25 | 33.45984 | -88.56550 | 37009 ft | 337 kts | 54° |
| 2026-04-24 13:25 | 33.48376 | -88.51755 | 37012 ft | 337 kts | 54° |
| 2026-04-24 13:26 | 33.50740 | -88.46890 | 37004 ft | 338 kts | 56° |
| 2026-04-24 13:26 | 33.53082 | -88.42011 | 36962 ft | 337 kts | 55° |
| 2026-04-24 13:27 | 33.55436 | -88.37143 | 36960 ft | 337 kts | 56° |
| 2026-04-24 13:27 | 33.57779 | -88.32266 | 36962 ft | 337 kts | 56° |
| 2026-04-24 13:28 | 33.60111 | -88.27419 | 36964 ft | 337 kts | 56° |
| 2026-04-24 13:28 | 33.62454 | -88.22533 | 36958 ft | 338 kts | 56° |
| 2026-04-24 13:29 | 33.64800 | -88.17643 | 36959 ft | 338 kts | 56° |
| 2026-04-24 13:29 | 33.67149 | -88.12733 | 36960 ft | 338 kts | 56° |
| 2026-04-24 13:30 | 33.69492 | -88.07834 | 36957 ft | 338 kts | 56° |
| 2026-04-24 13:30 | 33.71434 | -88.03763 | 36961 ft | 338 kts | 56° |
| 2026-04-24 13:31 | 33.73768 | -87.98867 | 36962 ft | 338 kts | 56° |
| 2026-04-24 13:31 | 33.76483 | -87.93166 | 36960 ft | 338 kts | 56° |
| 2026-04-24 13:32 | 33.78438 | -87.89054 | 36965 ft | 338 kts | 56° |
| 2026-04-24 13:32 | 33.80750 | -87.84182 | 36965 ft | 338 kts | 56° |
| 2026-04-24 13:33 | 33.83078 | -87.79276 | 36964 ft | 337 kts | 56° |
| 2026-04-24 13:33 | 33.85399 | -87.74374 | 36968 ft | 337 kts | 56° |
| 2026-04-24 13:34 | 33.87714 | -87.69478 | 36981 ft | 336 kts | 56° |
| 2026-04-24 13:34 | 33.90028 | -87.64579 | 36994 ft | 336 kts | 56° |
| 2026-04-24 13:35 | 33.92337 | -87.59682 | 37000 ft | 336 kts | 56° |
| 2026-04-24 13:35 | 33.94641 | -87.54789 | 37012 ft | 335 kts | 56° |
| 2026-04-24 13:36 | 33.96942 | -87.49900 | 37018 ft | 335 kts | 56° |
| 2026-04-24 13:36 | 33.99238 | -87.45008 | 37024 ft | 335 kts | 56° |
| 2026-04-24 13:37 | 34.01515 | -87.40152 | 37027 ft | 335 kts | 56° |
| 2026-04-24 13:37 | 34.03803 | -87.35268 | 37029 ft | 334 kts | 56° |
| 2026-04-24 13:38 | 34.06090 | -87.30378 | 37021 ft | 334 kts | 56° |
| 2026-04-24 13:38 | 34.08367 | -87.25501 | 37019 ft | 333 kts | 56° |
| 2026-04-24 13:39 | 34.10643 | -87.20622 | 37016 ft | 333 kts | 55° |
| 2026-04-24 13:39 | 34.12917 | -87.15742 | 37013 ft | 333 kts | 56° |
| 2026-04-24 13:40 | 34.15171 | -87.10892 | 37014 ft | 333 kts | 56° |
| 2026-04-24 13:40 | 34.17439 | -87.06013 | 37021 ft | 333 kts | 56° |
| 2026-04-24 13:41 | 34.19702 | -87.01133 | 37026 ft | 333 kts | 55° |
| 2026-04-24 13:41 | 34.20844 | -86.98672 | 36771 ft | 340 kts | 56° |
| 2026-04-24 13:41 | 34.22018 | -86.96138 | 36334 ft | 347 kts | 56° |
| 2026-04-24 13:42 | 34.23197 | -86.93574 | 35877 ft | 351 kts | 56° |
| 2026-04-24 13:42 | 34.24391 | -86.90989 | 35416 ft | 351 kts | 56° |
| 2026-04-24 13:42 | 34.25579 | -86.88417 | 34952 ft | 350 kts | 56° |
| 2026-04-24 13:42 | 34.26764 | -86.85851 | 34492 ft | 348 kts | 56° |
| 2026-04-24 13:43 | 34.27944 | -86.83297 | 34027 ft | 348 kts | 56° |
| 2026-04-24 13:43 | 34.29118 | -86.80750 | 33538 ft | 346 kts | 56° |
| 2026-04-24 13:43 | 34.30285 | -86.78212 | 33081 ft | 344 kts | 56° |
| 2026-04-24 13:43 | 34.31431 | -86.75722 | 32643 ft | 342 kts | 56° |
| 2026-04-24 13:44 | 34.32589 | -86.73213 | 32184 ft | 341 kts | 56° |
| 2026-04-24 13:44 | 34.33737 | -86.70716 | 31732 ft | 339 kts | 57° |
| 2026-04-24 13:44 | 34.34880 | -86.68220 | 31290 ft | 339 kts | 57° |
| 2026-04-24 13:44 | 34.36021 | -86.65736 | 30842 ft | 338 kts | 57° |
| 2026-04-24 13:45 | 34.37168 | -86.63242 | 30392 ft | 338 kts | 57° |
| 2026-04-24 13:45 | 34.38308 | -86.60756 | 29924 ft | 338 kts | 58° |
| 2026-04-24 13:45 | 34.39441 | -86.58274 | 29455 ft | 336 kts | 58° |
| 2026-04-24 13:45 | 34.40572 | -86.55803 | 29014 ft | 333 kts | 58° |
| 2026-04-24 13:46 | 34.41691 | -86.53358 | 28563 ft | 331 kts | 58° |
| 2026-04-24 13:46 | 34.42804 | -86.50925 | 28136 ft | 329 kts | 58° |
| 2026-04-24 13:46 | 34.43929 | -86.48516 | 27704 ft | 327 kts | 55° |
| 2026-04-24 13:46 | 34.45202 | -86.46239 | 27277 ft | 327 kts | 52° |
| 2026-04-24 13:47 | 34.46493 | -86.43967 | 26845 ft | 327 kts | 52° |
| 2026-04-24 13:47 | 34.47763 | -86.41670 | 26410 ft | 328 kts | 53° |
| 2026-04-24 13:47 | 34.49011 | -86.39399 | 25982 ft | 328 kts | 53° |
| 2026-04-24 13:47 | 34.50285 | -86.37106 | 25551 ft | 327 kts | 52° |
| 2026-04-24 13:48 | 34.51564 | -86.34822 | 25118 ft | 327 kts | 52° |
| 2026-04-24 13:48 | 34.52839 | -86.32537 | 24684 ft | 327 kts | 53° |
| 2026-04-24 13:48 | 34.54111 | -86.30244 | 24254 ft | 326 kts | 53° |
| 2026-04-24 13:48 | 34.55374 | -86.27957 | 23821 ft | 326 kts | 53° |
| 2026-04-24 13:49 | 34.56634 | -86.25679 | 23360 ft | 325 kts | 53° |
| 2026-04-24 13:49 | 34.57891 | -86.23419 | 22911 ft | 322 kts | 53° |
| 2026-04-24 13:49 | 34.59134 | -86.21179 | 22489 ft | 318 kts | 53° |
| 2026-04-24 13:49 | 34.60361 | -86.18961 | 22078 ft | 315 kts | 53° |
| 2026-04-24 13:50 | 34.61576 | -86.16763 | 21664 ft | 312 kts | 53° |
| 2026-04-24 13:50 | 34.62772 | -86.14603 | 21252 ft | 310 kts | 53° |
| 2026-04-24 13:50 | 34.63968 | -86.12437 | 20848 ft | 308 kts | 53° |
| 2026-04-24 13:50 | 34.65157 | -86.10282 | 20441 ft | 306 kts | 53° |
| 2026-04-24 13:51 | 34.66336 | -86.08145 | 20044 ft | 303 kts | 53° |
| 2026-04-24 13:51 | 34.67505 | -86.06028 | 19645 ft | 300 kts | 53° |
| 2026-04-24 13:51 | 34.68665 | -86.03928 | 19247 ft | 298 kts | 53° |
| 2026-04-24 13:51 | 34.69638 | -86.02160 | 18918 ft | 297 kts | 53° |
| 2026-04-24 13:52 | 34.70778 | -86.00088 | 18526 ft | 295 kts | 53° |
| 2026-04-24 13:52 | 34.71921 | -85.98009 | 18121 ft | 294 kts | 53° |
| 2026-04-24 13:52 | 34.73059 | -85.95959 | 17715 ft | 291 kts | 52° |
| 2026-04-24 13:52 | 34.74177 | -85.93922 | 17325 ft | 288 kts | 54° |
| 2026-04-24 13:53 | 34.75264 | -85.91883 | 16948 ft | 286 kts | 54° |
| 2026-04-24 13:53 | 34.76366 | -85.89884 | 16571 ft | 283 kts | 52° |
| 2026-04-24 13:53 | 34.77475 | -85.87916 | 16203 ft | 281 kts | 53° |
| 2026-04-24 13:53 | 34.78561 | -85.85952 | 15831 ft | 279 kts | 53° |
| 2026-04-24 13:54 | 34.79632 | -85.83992 | 15466 ft | 277 kts | 53° |
| 2026-04-24 13:54 | 34.80697 | -85.82044 | 15104 ft | 276 kts | 53° |
| 2026-04-24 13:54 | 34.81757 | -85.80106 | 14738 ft | 275 kts | 54° |
| 2026-04-24 13:54 | 34.82809 | -85.78166 | 14376 ft | 275 kts | 54° |
| 2026-04-24 13:55 | 34.83862 | -85.76229 | 14012 ft | 274 kts | 54° |
| 2026-04-24 13:55 | 34.84911 | -85.74310 | 13637 ft | 271 kts | 54° |
| 2026-04-24 13:55 | 34.85964 | -85.72407 | 13267 ft | 271 kts | 54° |
| 2026-04-24 13:55 | 34.87017 | -85.70489 | 12903 ft | 273 kts | 54° |
| 2026-04-24 13:56 | 34.88069 | -85.68557 | 12543 ft | 274 kts | 54° |
| 2026-04-24 13:56 | 34.89107 | -85.66640 | 12187 ft | 275 kts | 55° |
| 2026-04-24 13:56 | 34.90163 | -85.64690 | 11829 ft | 276 kts | 55° |
| 2026-04-24 13:56 | 34.91227 | -85.62740 | 11461 ft | 277 kts | 55° |
| 2026-04-24 13:57 | 34.92286 | -85.60773 | 11097 ft | 277 kts | 55° |
| 2026-04-24 13:57 | 34.93370 | -85.58822 | 10735 ft | 279 kts | 55° |
| 2026-04-24 13:57 | 34.94441 | -85.56852 | 10365 ft | 279 kts | 56° |
| 2026-04-24 13:57 | 34.95511 | -85.54881 | 10002 ft | 279 kts | 56° |
| 2026-04-24 13:58 | 34.96591 | -85.52923 | 9614 ft | 278 kts | 56° |
| 2026-04-24 13:58 | 34.97651 | -85.50957 | 9238 ft | 276 kts | 57° |
| 2026-04-24 13:58 | 34.98690 | -85.48993 | 8879 ft | 275 kts | 57° |
| 2026-04-24 13:58 | 34.99739 | -85.47050 | 8512 ft | 274 kts | 57° |
| 2026-04-24 13:59 | 35.00785 | -85.45114 | 8157 ft | 273 kts | 57° |
| 2026-04-24 13:59 | 35.01844 | -85.43198 | 7802 ft | 271 kts | 56° |
| 2026-04-24 13:59 | 35.02968 | -85.41349 | 7443 ft | 273 kts | 46° |
| 2026-04-24 13:59 | 35.04570 | -85.40125 | 7078 ft | 274 kts | 21° |
| 2026-04-24 14:00 | 35.06382 | -85.39459 | 6790 ft | 271 kts | 14° |
| 2026-04-24 14:00 | 35.08187 | -85.38870 | 6542 ft | 267 kts | 14° |
| 2026-04-24 14:00 | 35.09969 | -85.38284 | 6297 ft | 264 kts | 14° |
| 2026-04-24 14:00 | 35.11734 | -85.37725 | 5999 ft | 261 kts | 13° |
| 2026-04-24 14:01 | 35.13491 | -85.37164 | 5781 ft | 260 kts | 14° |
| 2026-04-24 14:01 | 35.15229 | -85.36591 | 5512 ft | 258 kts | 14° |
| 2026-04-24 14:01 | 35.16953 | -85.35980 | 5239 ft | 257 kts | 15° |
| 2026-04-24 14:01 | 35.18669 | -85.35369 | 4992 ft | 256 kts | 14° |
| 2026-04-24 14:02 | 35.20382 | -85.34774 | 4743 ft | 256 kts | 14° |
| 2026-04-24 14:02 | 35.22090 | -85.34170 | 4476 ft | 255 kts | 14° |
| 2026-04-24 14:02 | 35.23767 | -85.33489 | 4194 ft | 255 kts | 25° |
| 2026-04-24 14:02 | 35.25070 | -85.32050 | 3919 ft | 255 kts | 57° |
| 2026-04-24 14:03 | 35.25504 | -85.30004 | 3678 ft | 250 kts | 94° |
| 2026-04-24 14:03 | 35.25145 | -85.27945 | 3472 ft | 246 kts | 108° |
| 2026-04-24 14:03 | 35.24620 | -85.25939 | 3290 ft | 249 kts | 110° |
| 2026-04-24 14:03 | 35.24124 | -85.23941 | 3159 ft | 243 kts | 107° |
| 2026-04-24 14:04 | 35.23643 | -85.21975 | 3046 ft | 237 kts | 110° |
| 2026-04-24 14:04 | 35.22900 | -85.20233 | 3018 ft | 228 kts | 128° |
| 2026-04-24 14:04 | 35.21783 | -85.18933 | 3027 ft | 219 kts | 145° |
| 2026-04-24 14:04 | 35.20545 | -85.17884 | 3023 ft | 214 kts | 148° |
| 2026-04-24 14:05 | 35.19328 | -85.16901 | 3024 ft | 214 kts | 148° |
| 2026-04-24 14:05 | 35.18113 | -85.15871 | 3024 ft | 208 kts | 147° |
| 2026-04-24 14:05 | 35.16840 | -85.15242 | 3013 ft | 193 kts | 179° |
| 2026-04-24 14:05 | 35.15623 | -85.15726 | 2994 ft | 184 kts | 211° |
| 2026-04-24 14:06 | 35.14435 | -85.16330 | 2784 ft | 184 kts | 196° |
| 2026-04-24 14:06 | 35.13231 | -85.16710 | 2557 ft | 172 kts | 197° |
| 2026-04-24 14:06 | 35.12140 | -85.17122 | 2337 ft | 160 kts | 198° |
| 2026-04-24 14:06 | 35.11097 | -85.17518 | 2140 ft | 156 kts | 197° |
| 2026-04-24 14:07 | 35.10085 | -85.17883 | 1926 ft | 144 kts | 199° |
| 2026-04-24 14:07 | 35.09193 | -85.18242 | 1753 ft | 127 kts | 197° |
| 2026-04-24 14:07 | 35.08325 | -85.18524 | 1571 ft | 134 kts | 195° |
| 2026-04-24 14:07 | 35.07409 | -85.18864 | 1381 ft | 138 kts | 197° |
| 2026-04-24 14:08 | 35.06556 | -85.19188 | 1205 ft | 124 kts | 197° |
| 2026-04-24 14:08 | 35.05727 | -85.19491 | 1037 ft | 125 kts | 195° |
| 2026-04-24 14:08 | 35.04901 | -85.19792 | 861 ft | 122 kts | 196° |
| 2026-04-24 14:08 | 35.04108 | -85.20079 | 705 ft | 112 kts | 197° |
| 2026-04-24 14:09 | 35.03430 | -85.20328 | 684 ft | 91 kts | 196° |
| 2026-04-24 14:09 | 35.03090 | -85.20448 | 685 ft | 36 kts | 195° |
| 2026-04-24 14:09 | 35.02978 | -85.20566 | 685 ft | 19 kts | 286° |
| 2026-04-24 14:09 | 35.03078 | -85.20595 | 685 ft | 19 kts | 16° |
| 2026-04-24 14:10 | 35.03157 | -85.20603 | 684 ft | 18 kts | 355° |
| 2026-04-24 14:10 | 35.03278 | -85.20619 | 685 ft | 10 kts | 287° |
| 2026-04-24 14:10 | 35.03280 | -85.20629 | 685 ft | 0 kts | 286° |